createdAt,value
2023-02-02T00:01:10.312Z,99555.53
2023-02-02T00:03:38.331Z,99560.53
2023-02-02T00:06:05.920Z,99559.44
2023-02-02T00:08:33.996Z,99561.16
2023-02-02T00:11:01.253Z,99560.94
2023-02-02T00:13:29.066Z,99565.75
2023-02-02T00:15:56.325Z,99569.50
2023-02-02T00:18:23.662Z,99570.41
2023-02-02T00:20:51.088Z,99569.47
2023-02-02T00:23:18.426Z,99572.13
2023-02-02T00:25:49.192Z,99575.28
2023-02-02T00:28:16.430Z,99569.66
2023-02-02T00:30:43.706Z,99575.06
2023-02-02T00:33:11.037Z,99580.22
2023-02-02T00:35:40.084Z,99576.00
2023-02-02T00:38:07.280Z,99579.38
2023-02-02T00:40:34.570Z,99574.38
2023-02-02T00:43:01.953Z,99574.72
2023-02-02T00:45:29.244Z,99573.16
2023-02-02T00:47:56.478Z,99565.66
2023-02-02T00:50:23.986Z,99559.78
2023-02-02T00:52:51.317Z,99560.94
2023-02-02T00:55:18.608Z,99569.13
2023-02-02T00:57:46.785Z,99562.97
2023-02-02T01:00:15.533Z,99569.22
2023-02-02T01:02:43.414Z,99569.59
2023-02-02T01:05:13.860Z,99571.56
2023-02-02T01:07:41.258Z,99570.81
2023-02-02T01:10:11.273Z,99566.16
2023-02-02T01:12:38.568Z,99567.16
2023-02-02T01:15:06.347Z,99574.81
2023-02-02T01:17:33.973Z,99576.13
2023-02-02T01:20:01.213Z,99573.16
2023-02-02T01:22:28.519Z,99576.50
2023-02-02T01:24:55.808Z,99582.72
2023-02-02T01:27:23.074Z,99576.22
2023-02-02T01:29:50.268Z,99579.59
2023-02-02T01:32:17.553Z,99577.84
2023-02-02T01:34:44.812Z,99578.28
2023-02-02T01:37:12.008Z,99573.13
2023-02-02T01:39:39.227Z,99572.88
2023-02-02T01:42:12.874Z,99572.41
2023-02-02T01:44:58.754Z,99575.97
2023-02-02T01:47:27.337Z,99581.75
2023-02-02T01:49:55.318Z,99585.88
2023-02-02T01:52:24.225Z,99577.09
2023-02-02T01:54:53.913Z,99590.25
2023-02-02T01:57:24.946Z,99590.94
2023-02-02T01:59:53.655Z,99593.66
2023-02-02T02:02:21.148Z,99595.78
2023-02-02T02:04:50.003Z,99601.78
2023-02-02T02:07:17.360Z,99603.50
2023-02-02T02:09:44.755Z,99602.34
2023-02-02T02:12:14.528Z,99604.25
2023-02-02T02:15:02.464Z,99606.72
2023-02-02T02:17:35.454Z,99598.31
2023-02-02T02:20:39.504Z,99605.19
2023-02-02T02:23:25.843Z,99608.53
2023-02-02T02:26:28.525Z,99603.53
2023-02-02T02:29:15.005Z,99612.00
2023-02-02T02:31:51.553Z,99604.38
2023-02-02T02:34:18.973Z,99607.66
2023-02-02T02:36:50.639Z,99618.78
2023-02-02T02:39:24.400Z,99625.47
2023-02-02T02:41:54.215Z,99630.56
2023-02-02T02:44:22.089Z,99629.50
2023-02-02T02:46:50.619Z,99628.78
2023-02-02T02:49:18.709Z,99624.59
2023-02-02T02:51:50.120Z,99632.72
2023-02-02T02:54:25.861Z,99635.13
2023-02-02T02:57:12.112Z,99652.53
2023-02-02T02:59:57.629Z,99645.84
2023-02-02T03:02:29.158Z,99652.66
2023-02-02T03:04:56.644Z,99655.59
2023-02-02T03:07:27.791Z,99649.72
2023-02-02T03:09:56.905Z,99652.66
2023-02-02T03:12:24.349Z,99654.06
2023-02-02T03:14:51.651Z,99653.31
2023-02-02T03:17:18.946Z,99656.19
2023-02-02T03:19:46.263Z,99654.19
2023-02-02T03:22:13.669Z,99657.31
2023-02-02T03:24:40.888Z,99668.25
2023-02-02T03:27:08.115Z,99667.75
2023-02-02T03:29:35.746Z,99664.78
2023-02-02T03:32:03.062Z,99663.84
2023-02-02T03:34:30.244Z,99674.09
2023-02-02T03:36:57.589Z,99664.56
2023-02-02T03:39:24.808Z,99675.31
2023-02-02T03:41:52.066Z,99679.25
2023-02-02T03:44:19.291Z,99683.91
2023-02-02T03:46:46.597Z,99686.16
2023-02-02T03:49:13.805Z,99681.91
2023-02-02T03:51:41.400Z,99691.19
2023-02-02T03:54:08.574Z,99702.00
2023-02-02T03:56:35.805Z,99694.38
2023-02-02T03:59:03.095Z,99693.97
2023-02-02T04:01:30.627Z,99701.75
2023-02-02T04:03:58.176Z,99697.28
2023-02-02T04:06:26.315Z,99709.03
2023-02-02T04:08:53.549Z,99708.88
2023-02-02T04:11:20.823Z,99705.41
2023-02-02T04:13:48.050Z,99710.66
2023-02-02T04:16:15.386Z,99716.31
2023-02-02T04:18:42.645Z,99713.75
2023-02-02T04:21:10.116Z,99707.09
2023-02-02T04:23:37.355Z,99717.69
2023-02-02T04:26:05.192Z,99718.56
2023-02-02T04:28:32.552Z,99724.09
2023-02-02T04:30:59.841Z,99727.16
2023-02-02T04:33:27.830Z,99719.94
2023-02-02T04:35:55.268Z,99734.38
2023-02-02T04:38:22.466Z,99736.72
2023-02-02T04:40:49.899Z,99736.91
2023-02-02T04:43:17.224Z,99736.81
2023-02-02T04:45:45.143Z,99740.97
2023-02-02T04:48:12.429Z,99745.00
2023-02-02T04:50:39.719Z,99750.03
2023-02-02T04:53:06.975Z,99761.72
2023-02-02T04:55:38.283Z,99763.06
2023-02-02T04:58:06.047Z,99773.06
2023-02-02T05:00:33.515Z,99770.13
2023-02-02T05:03:00.858Z,99776.91
2023-02-02T05:05:28.223Z,99780.81
2023-02-02T05:07:55.569Z,99774.38
2023-02-02T05:10:22.786Z,99781.97
2023-02-02T05:12:52.296Z,99790.53
2023-02-02T05:15:21.405Z,99789.56
2023-02-02T05:17:49.179Z,99797.13
2023-02-02T05:20:16.534Z,99792.41
2023-02-02T05:22:43.833Z,99799.03
2023-02-02T05:25:11.047Z,99812.56
2023-02-02T05:27:38.435Z,99805.94
2023-02-02T05:30:06.010Z,99814.19
2023-02-02T05:32:33.291Z,99826.19
2023-02-02T05:35:00.533Z,99828.31
2023-02-02T05:37:27.870Z,99829.22
2023-02-02T05:39:55.061Z,99831.84
2023-02-02T05:42:22.405Z,99835.38
2023-02-02T05:44:49.560Z,99840.44
2023-02-02T05:47:16.901Z,99845.22
2023-02-02T05:49:44.316Z,99847.25
2023-02-02T05:52:15.655Z,99854.03
2023-02-02T05:54:43.119Z,99850.16
2023-02-02T05:57:10.541Z,99857.97
2023-02-02T05:59:37.853Z,99859.56
2023-02-02T06:02:05.100Z,99870.75
2023-02-02T06:04:32.614Z,99879.50
2023-02-02T06:06:59.893Z,99871.56
2023-02-02T06:09:27.333Z,99886.09
2023-02-02T06:11:54.619Z,99883.81
2023-02-02T06:14:21.959Z,99880.03
2023-02-02T06:16:49.225Z,99887.44
2023-02-02T06:19:16.691Z,99888.88
2023-02-02T06:21:43.972Z,99898.06
2023-02-02T06:24:11.413Z,99895.34
2023-02-02T06:26:38.714Z,99905.63
2023-02-02T06:29:06.944Z,99905.19
2023-02-02T06:31:34.416Z,99906.69
2023-02-02T06:34:01.980Z,99917.38
2023-02-02T06:36:29.319Z,99920.22
2023-02-02T06:38:57.446Z,99923.06
2023-02-02T06:41:24.964Z,99922.44
2023-02-02T06:43:52.223Z,99921.13
2023-02-02T06:46:19.521Z,99937.94
2023-02-02T06:48:46.944Z,99936.81
2023-02-02T06:51:14.276Z,99939.22
2023-02-02T06:53:41.561Z,99943.97
2023-02-02T06:56:11.852Z,99960.31
2023-02-02T06:58:39.355Z,99952.75
2023-02-02T07:01:11.469Z,99954.78
2023-02-02T07:03:39.305Z,99962.69
2023-02-02T07:06:14.174Z,99963.84
2023-02-02T07:08:41.567Z,99964.81
2023-02-02T07:11:14.941Z,99981.88
2023-02-02T07:13:44.650Z,99984.31
2023-02-02T07:16:13.211Z,99990.63
2023-02-02T07:18:40.777Z,99993.72
2023-02-02T07:21:08.093Z,99992.81
2023-02-02T07:23:35.417Z,99995.63
2023-02-02T07:26:07.898Z,100005.66
2023-02-02T07:28:35.901Z,100010.88
2023-02-02T07:31:16.425Z,100012.13
2023-02-02T07:33:44.797Z,100011.66
2023-02-02T07:36:13.265Z,100014.47
2023-02-02T07:38:40.520Z,100023.50
2023-02-02T07:41:07.819Z,100029.63
2023-02-02T07:43:35.368Z,100027.03
2023-02-02T07:46:03.587Z,100036.66
2023-02-02T07:48:31.126Z,100035.25
2023-02-02T07:50:59.063Z,100040.38
2023-02-02T07:53:26.628Z,100046.34
2023-02-02T07:55:53.884Z,100056.34
2023-02-02T07:58:21.081Z,100050.59
2023-02-02T08:00:48.361Z,100068.91
2023-02-02T08:03:15.729Z,100077.41
2023-02-02T08:05:42.984Z,100075.88
2023-02-02T08:08:10.193Z,100084.22
2023-02-02T08:10:37.381Z,100090.88
2023-02-02T08:13:04.774Z,100100.50
2023-02-02T08:15:32.025Z,100096.84
2023-02-02T08:17:59.315Z,100104.47
2023-02-02T08:20:26.494Z,100115.38
2023-02-02T08:22:54.034Z,100112.09
2023-02-02T08:25:21.254Z,100108.56
2023-02-02T08:27:48.468Z,100114.25
2023-02-02T08:30:15.775Z,100121.28
2023-02-02T08:32:43.111Z,100124.78
2023-02-02T08:35:10.304Z,100124.19
2023-02-02T08:37:37.614Z,100131.59
2023-02-02T08:40:05.066Z,100134.88
2023-02-02T08:42:32.271Z,100141.00
2023-02-02T08:46:03.132Z,100136.22
2023-02-02T08:47:46.717Z,100158.97
2023-02-02T08:50:14.138Z,100160.66
2023-02-02T08:52:41.398Z,100161.78
2023-02-02T08:55:09.241Z,100170.91
2023-02-02T08:57:36.641Z,100169.50
2023-02-02T09:00:05.119Z,100177.22
2023-02-02T09:02:32.671Z,100179.75
2023-02-02T09:04:59.881Z,100192.00
2023-02-02T09:07:27.115Z,100196.84
2023-02-02T09:09:55.872Z,100204.00
2023-02-02T09:12:23.150Z,100208.81
2023-02-02T09:14:50.652Z,100207.53
2023-02-02T09:17:18.128Z,100216.53
2023-02-02T09:19:45.355Z,100218.78
2023-02-02T09:22:12.660Z,100214.09
2023-02-02T09:24:40.198Z,100216.25
2023-02-02T09:27:07.603Z,100212.94
2023-02-02T09:29:34.880Z,100222.22
2023-02-02T09:32:02.305Z,100221.91
2023-02-02T09:34:29.629Z,100227.09
2023-02-02T09:36:56.833Z,100228.75
2023-02-02T09:39:24.130Z,100236.88
2023-02-02T09:42:10.321Z,100245.84
2023-02-02T09:44:37.533Z,100243.03
2023-02-02T09:47:13.754Z,100250.16
2023-02-02T09:49:53.381Z,100255.84
2023-02-02T09:52:23.507Z,100258.41
2023-02-02T09:54:52.336Z,100265.25
2023-02-02T09:57:22.580Z,100270.41
2023-02-02T09:59:51.123Z,100266.66
2023-02-02T10:02:23.915Z,100271.94
2023-02-02T10:04:52.905Z,100284.94
2023-02-02T10:07:24.007Z,100284.78
2023-02-02T10:09:58.055Z,100283.97
2023-02-02T10:12:33.206Z,100294.31
2023-02-02T10:15:00.765Z,100292.34
2023-02-02T10:17:30.741Z,100306.03
2023-02-02T10:20:01.815Z,100306.28
2023-02-02T10:22:30.011Z,100315.72
2023-02-02T10:24:57.517Z,100313.72
2023-02-02T10:27:47.240Z,100314.28
2023-02-02T10:30:25.152Z,100308.84
2023-02-02T10:33:04.021Z,100327.28
2023-02-02T10:36:01.095Z,100339.41
2023-02-02T10:38:38.008Z,100335.03
2023-02-02T10:41:25.090Z,100338.00
2023-02-02T10:43:58.644Z,100345.34
2023-02-02T10:46:30.898Z,100343.91
2023-02-02T10:49:13.076Z,100351.63
2023-02-02T10:51:48.379Z,100357.59
2023-02-02T10:54:30.007Z,100356.47
2023-02-02T10:57:02.177Z,100372.13
2023-02-02T10:59:33.377Z,100374.44
2023-02-02T11:02:11.647Z,100377.13
2023-02-02T11:05:05.063Z,100376.16
2023-02-02T11:07:32.343Z,100386.91
2023-02-02T11:09:59.538Z,100394.34
2023-02-02T11:12:35.258Z,100402.88
2023-02-02T11:15:25.506Z,100410.84
2023-02-02T11:17:52.881Z,100413.97
2023-02-02T11:20:25.622Z,100420.41
2023-02-02T11:23:03.586Z,100432.34
2023-02-02T11:25:34.212Z,100435.28
2023-02-02T11:28:10.995Z,100447.28
2023-02-02T11:30:38.566Z,100448.72
2023-02-02T11:33:24.305Z,100456.13
2023-02-02T11:35:54.164Z,100455.81
2023-02-02T11:38:21.923Z,100461.34
2023-02-02T11:41:04.057Z,100460.66
2023-02-02T11:43:55.136Z,100463.06
2023-02-02T11:46:24.915Z,100466.69
2023-02-02T11:48:59.476Z,100470.00
2023-02-02T11:51:28.154Z,100479.22
2023-02-02T11:54:02.135Z,100478.44
2023-02-02T11:56:32.482Z,100489.44
2023-02-02T11:59:03.696Z,100492.22
2023-02-02T12:01:53.841Z,100496.44
2023-02-02T12:04:21.203Z,100497.13
2023-02-02T12:06:48.496Z,100502.28
2023-02-02T12:09:23.933Z,100504.94
2023-02-02T12:12:11.621Z,100506.50
2023-02-02T12:14:47.063Z,100520.19
2023-02-02T12:17:23.232Z,100516.53
2023-02-02T12:19:56.242Z,100520.75
2023-02-02T12:22:26.302Z,100524.03
2023-02-02T12:25:01.051Z,100522.31
2023-02-02T12:27:43.205Z,100518.22
2023-02-02T12:30:22.423Z,100527.91
2023-02-02T12:32:58.871Z,100524.78
2023-02-02T12:35:38.359Z,100538.91
2023-02-02T12:38:17.724Z,100541.38
2023-02-02T12:41:03.642Z,100553.34
2023-02-02T12:43:30.957Z,100543.91
2023-02-02T12:46:15.969Z,100565.94
2023-02-02T12:49:12.526Z,100569.41
2023-02-02T12:51:48.760Z,100562.94
2023-02-02T12:54:48.185Z,100573.94
2023-02-02T12:57:17.410Z,100589.16
2023-02-02T12:59:47.739Z,100590.88
2023-02-02T13:02:29.419Z,100588.38
2023-02-02T13:08:01.333Z,100606.84
2023-02-02T13:10:36.881Z,100609.91
2023-02-02T13:13:12.762Z,100623.34
2023-02-02T13:15:54.270Z,100633.16
2023-02-02T13:18:35.193Z,100626.78
2023-02-02T13:21:12.639Z,100631.41
2023-02-02T13:23:43.392Z,100641.63
2023-02-02T13:26:19.555Z,100646.31
2023-02-02T13:29:05.789Z,100647.94
2023-02-02T13:31:45.338Z,100654.53
2023-02-02T13:34:20.470Z,100658.06
2023-02-02T13:36:51.321Z,100668.44
2023-02-02T13:39:26.607Z,100676.25
2023-02-02T13:41:58.031Z,100687.59
2023-02-02T13:44:29.837Z,100688.94
2023-02-02T13:47:04.754Z,100700.69
2023-02-02T13:49:42.135Z,100705.47
2023-02-02T13:52:19.354Z,100711.09
2023-02-02T13:55:03.345Z,100710.75
2023-02-02T13:57:33.709Z,100720.25
2023-02-02T14:00:03.991Z,100726.00
2023-02-02T14:02:41.931Z,100726.91
2023-02-02T14:05:20.603Z,100740.28
2023-02-02T14:07:51.316Z,100750.06
2023-02-02T14:10:22.458Z,100757.19
2023-02-02T14:12:50.105Z,100759.34
2023-02-02T14:15:18.008Z,100765.19
2023-02-02T14:17:47.109Z,100780.38
2023-02-02T14:20:35.870Z,100778.63
2023-02-02T14:23:03.273Z,100781.44
2023-02-02T14:25:33.571Z,100776.03
2023-02-02T14:28:01.841Z,100785.97
2023-02-02T14:30:34.266Z,100801.78
2023-02-02T14:33:20.166Z,100796.59
2023-02-02T14:35:47.392Z,100795.34
2023-02-02T14:38:14.731Z,100799.28
2023-02-02T14:40:47.445Z,100802.56
2023-02-02T14:43:33.373Z,100820.09
2023-02-02T14:46:16.657Z,100829.28
2023-02-02T14:49:07.998Z,100835.22
2023-02-02T14:51:46.182Z,100839.59
2023-02-02T14:54:36.769Z,100833.53
2023-02-02T14:57:07.876Z,100848.47
2023-02-02T14:59:37.438Z,100860.78
2023-02-02T15:02:20.044Z,100864.47
2023-02-02T15:04:48.279Z,100865.22
2023-02-02T15:07:24.623Z,100872.19
2023-02-02T15:09:56.516Z,100880.69
2023-02-02T15:12:30.032Z,100885.19
2023-02-02T15:15:06.249Z,100887.16
2023-02-02T15:17:44.532Z,100898.63
2023-02-02T15:20:17.252Z,100910.66
2023-02-02T15:22:49.054Z,100920.00
2023-02-02T15:25:20.288Z,100916.44
2023-02-02T15:27:56.939Z,100922.22
2023-02-02T15:30:27.345Z,100919.97
2023-02-02T15:32:56.025Z,100926.53
2023-02-02T15:35:26.281Z,100936.75
2023-02-02T15:37:57.984Z,100943.38
2023-02-02T15:40:27.125Z,100949.94
2023-02-02T15:43:00.536Z,100957.91
2023-02-02T15:45:27.865Z,100967.75
2023-02-02T15:47:56.080Z,100977.63
2023-02-02T15:50:23.554Z,100991.78
2023-02-02T15:52:51.999Z,100991.38
2023-02-02T15:55:24.744Z,100998.78
2023-02-02T15:57:54.579Z,101006.19
2023-02-02T16:00:30.959Z,101007.41
2023-02-02T16:03:04.659Z,101021.69
2023-02-02T16:05:31.937Z,101029.06
2023-02-02T16:08:06.754Z,101025.38
2023-02-02T16:10:35.290Z,101034.00
2023-02-02T16:13:02.810Z,101045.31
2023-02-02T16:15:34.383Z,101042.88
2023-02-02T16:18:07.945Z,101052.47
2023-02-02T16:20:37.422Z,101051.97
2023-02-02T16:23:06.904Z,101065.75
2023-02-02T16:25:37.001Z,101069.47
2023-02-02T16:28:04.654Z,101084.25
2023-02-02T16:30:37.213Z,101085.19
2023-02-02T16:33:25.716Z,101094.19
2023-02-02T16:35:53.020Z,101095.16
2023-02-02T16:38:30.256Z,101113.53
2023-02-02T16:41:20.334Z,101113.88
2023-02-02T16:43:50.552Z,101119.78
2023-02-02T16:46:40.198Z,101120.56
2023-02-02T16:49:13.938Z,101116.56
2023-02-02T16:51:41.373Z,101129.25
2023-02-02T16:54:08.560Z,101122.28
2023-02-02T16:56:42.697Z,101120.16
2023-02-02T16:59:16.119Z,101126.06
2023-02-02T17:01:47.121Z,101127.53
2023-02-02T17:04:21.012Z,101131.50
2023-02-02T17:06:53.330Z,101133.94
2023-02-02T17:09:35.345Z,101130.97
2023-02-02T17:12:33.708Z,101136.66
2023-02-02T17:15:23.729Z,101133.19
2023-02-02T17:17:52.036Z,101142.22
2023-02-02T17:20:19.517Z,101149.91
2023-02-02T17:22:49.174Z,101156.31
2023-02-02T17:25:30.442Z,101161.75
2023-02-02T17:27:59.677Z,101169.88
2023-02-02T17:30:27.475Z,101179.72
2023-02-02T17:32:55.243Z,101177.75
2023-02-02T17:35:24.384Z,101192.28
2023-02-02T17:37:55.167Z,101190.50
2023-02-02T17:40:23.908Z,101197.25
2023-02-02T17:42:52.361Z,101190.09
2023-02-02T17:45:24.759Z,101195.50
2023-02-02T17:47:52.300Z,101211.25
2023-02-02T17:50:24.012Z,101218.72
2023-02-02T17:52:54.235Z,101227.34
2023-02-02T17:55:27.302Z,101220.88
2023-02-02T17:57:54.841Z,101225.28
2023-02-02T18:00:24.372Z,101220.84
2023-02-02T18:02:55.819Z,101224.22
2023-02-02T18:05:27.681Z,101229.88
2023-02-02T18:07:55.066Z,101235.91
2023-02-02T18:10:26.489Z,101243.97
2023-02-02T18:12:56.352Z,101256.97
2023-02-02T18:15:25.337Z,101255.19
2023-02-02T18:17:52.780Z,101232.81
2023-02-02T18:20:20.715Z,101244.84
2023-02-02T18:22:50.603Z,101245.97
2023-02-02T18:25:20.035Z,101251.22
2023-02-02T18:27:51.695Z,101249.16
2023-02-02T18:30:22.172Z,101261.34
2023-02-02T18:32:50.471Z,101256.31
2023-02-02T18:35:17.863Z,101253.84
2023-02-02T18:37:45.164Z,101253.56
2023-02-02T18:40:12.609Z,101257.97
2023-02-02T18:42:40.013Z,101263.19
2023-02-02T18:45:07.631Z,101262.19
2023-02-02T18:47:35.068Z,101273.78
2023-02-02T18:50:02.391Z,101275.53
2023-02-02T18:52:33.893Z,101279.31
2023-02-02T18:55:02.612Z,101273.44
2023-02-02T18:57:30.457Z,101275.44
2023-02-02T18:59:57.735Z,101280.09
2023-02-02T19:02:27.771Z,101279.84
2023-02-02T19:05:13.813Z,101283.75
2023-02-02T19:07:56.035Z,101291.63
2023-02-02T19:10:24.925Z,101297.03
2023-02-02T19:12:55.556Z,101295.38
2023-02-02T19:15:23.346Z,101299.94
2023-02-02T19:17:51.854Z,101299.06
2023-02-02T19:20:25.694Z,101303.97
2023-02-02T19:23:01.677Z,101308.63
2023-02-02T19:25:29.426Z,101316.22
2023-02-02T19:27:57.714Z,101319.91
2023-02-02T19:30:28.041Z,101320.94
2023-02-02T19:32:57.124Z,101325.41
2023-02-02T19:35:26.612Z,101326.44
2023-02-02T19:37:59.556Z,101329.38
2023-02-02T19:40:28.857Z,101329.25
2023-02-02T19:43:29.783Z,101333.44
2023-02-02T19:45:59.429Z,101333.50
2023-02-02T19:48:35.998Z,101335.94
2023-02-02T19:51:23.314Z,101332.75
2023-02-02T19:53:50.694Z,101335.47
2023-02-02T19:56:26.814Z,101332.88
2023-02-02T19:58:54.442Z,101343.28
2023-02-02T20:01:24.217Z,101342.69
2023-02-02T20:03:53.276Z,101352.97
2023-02-02T20:06:27.270Z,101365.66
2023-02-02T20:08:59.699Z,101385.13
2023-02-02T20:11:33.019Z,101374.28
2023-02-02T20:14:02.010Z,101375.81
2023-02-02T20:16:36.134Z,101390.78
2023-02-02T20:19:03.722Z,101383.47
2023-02-02T20:21:31.439Z,101389.63
2023-02-02T20:23:58.798Z,101390.59
2023-02-02T20:26:27.244Z,101398.31
2023-02-02T20:28:56.495Z,101397.00
2023-02-02T20:31:25.291Z,101399.44
2023-02-02T20:33:53.697Z,101403.97
2023-02-02T20:36:23.756Z,101399.91
2023-02-02T20:38:51.015Z,101410.25
2023-02-02T20:41:18.894Z,101412.19
2023-02-02T20:43:46.439Z,101395.19
2023-02-02T20:46:14.943Z,101400.06
2023-02-02T20:48:43.800Z,101397.72
2023-02-02T20:51:13.151Z,101407.50
2023-02-02T20:53:41.857Z,101418.41
2023-02-02T20:56:09.093Z,101415.03
2023-02-02T20:58:37.028Z,101413.75
2023-02-02T21:01:05.894Z,101425.13
2023-02-02T21:03:33.952Z,101418.97
2023-02-02T21:06:01.214Z,101408.25
2023-02-02T21:08:31.649Z,101417.59
2023-02-02T21:10:59.308Z,101414.84
2023-02-02T21:13:26.504Z,101425.59
2023-02-02T21:15:53.830Z,101421.66
2023-02-02T21:18:21.931Z,101427.72
2023-02-02T21:20:50.200Z,101423.19
2023-02-02T21:23:18.318Z,101428.59
2023-02-02T21:25:45.829Z,101431.25
2023-02-02T21:28:16.245Z,101426.91
2023-02-02T21:30:43.850Z,101432.69
2023-02-02T21:33:14.820Z,101432.75
2023-02-02T21:35:43.160Z,101423.63
2023-02-02T21:38:14.189Z,101417.22
2023-02-02T21:40:42.214Z,101422.47
2023-02-02T21:43:18.001Z,101420.19
2023-02-02T21:45:49.453Z,101422.81
2023-02-02T21:48:19.758Z,101427.53
2023-02-02T21:50:47.924Z,101424.06
2023-02-02T21:53:15.082Z,101425.94
2023-02-02T21:55:44.358Z,101428.59
2023-02-02T21:58:19.479Z,101433.53
2023-02-02T22:00:50.439Z,101433.53
2023-02-02T22:03:29.224Z,101430.38
2023-02-02T22:06:00.124Z,101425.59
2023-02-02T22:08:30.261Z,101423.63
2023-02-02T22:10:57.459Z,101433.09
2023-02-02T22:13:26.728Z,101439.41
2023-02-02T22:15:54.030Z,101446.34
2023-02-02T22:18:23.060Z,101431.69
2023-02-02T22:20:51.465Z,101427.72
2023-02-02T22:23:25.452Z,101425.34
2023-02-02T22:25:54.327Z,101436.47
2023-02-02T22:28:28.330Z,101436.72
2023-02-02T22:30:56.371Z,101437.31
2023-02-02T22:33:26.379Z,101432.94
2023-02-02T22:35:54.109Z,101449.63
2023-02-02T22:38:30.126Z,101456.50
2023-02-02T22:40:57.447Z,101453.56
2023-02-02T22:43:24.706Z,101456.13
2023-02-02T22:45:52.012Z,101458.78
2023-02-02T22:48:22.020Z,101458.50
2023-02-02T22:50:51.203Z,101458.75
2023-02-02T22:53:18.635Z,101464.03
2023-02-02T22:55:48.593Z,101471.50
2023-02-02T22:58:15.816Z,101472.97
2023-02-02T23:00:43.044Z,101479.13
2023-02-02T23:03:10.367Z,101477.25
2023-02-02T23:05:40.429Z,101476.19
2023-02-02T23:08:07.701Z,101488.66
2023-02-02T23:10:35.919Z,101469.59
2023-02-02T23:13:04.179Z,101473.91
2023-02-02T23:15:31.618Z,101475.63
2023-02-02T23:17:59.073Z,101480.16
2023-02-02T23:20:26.639Z,101476.50
2023-02-02T23:22:54.060Z,101473.25
2023-02-02T23:25:22.087Z,101493.78
2023-02-02T23:27:50.403Z,101489.25
2023-02-02T23:30:21.130Z,101495.78
2023-02-02T23:32:49.516Z,101496.00
2023-02-02T23:35:18.314Z,101494.28
2023-02-02T23:37:45.675Z,101485.59
2023-02-02T23:40:13.356Z,101489.06
2023-02-02T23:42:42.371Z,101491.00
2023-02-02T23:45:16.584Z,101480.63
2023-02-02T23:47:44.359Z,101496.19
2023-02-02T23:50:17.446Z,101485.16
2023-02-02T23:52:44.729Z,101495.97
2023-02-02T23:55:14.304Z,101497.38
2023-02-02T23:57:49.009Z,101499.22
